createdAt,value
2018-07-16T00:00:19.902Z,44.02
2018-07-16T00:02:48.086Z,44.22
2018-07-16T00:05:16.268Z,44.36
2018-07-16T00:07:44.483Z,44.62
2018-07-16T00:10:12.647Z,44.80
2018-07-16T00:12:40.823Z,44.85
2018-07-16T00:15:09.023Z,44.22
2018-07-16T00:17:37.202Z,44.60
2018-07-16T00:20:05.563Z,44.92
2018-07-16T00:22:33.758Z,44.49
2018-07-16T00:25:02.126Z,44.68
2018-07-16T00:27:30.394Z,44.50
2018-07-16T00:29:58.558Z,44.97
2018-07-16T00:32:26.746Z,45.00
2018-07-16T00:34:54.918Z,44.79
2018-07-16T00:37:23.074Z,45.08
2018-07-16T00:39:51.243Z,45.75
2018-07-16T00:42:19.418Z,46.29
2018-07-16T00:44:47.604Z,46.31
2018-07-16T00:47:15.781Z,46.41
2018-07-16T00:49:43.950Z,47.06
2018-07-16T00:52:12.114Z,47.20
2018-07-16T00:54:40.302Z,46.55
2018-07-16T00:57:08.467Z,47.11
2018-07-16T00:59:36.729Z,46.16
2018-07-16T01:02:04.895Z,46.28
2018-07-16T01:04:33.059Z,46.87
2018-07-16T01:07:01.291Z,47.28
2018-07-16T01:09:29.458Z,46.99
2018-07-16T01:11:57.627Z,46.25
2018-07-16T01:14:26.023Z,46.11
2018-07-16T01:16:54.223Z,46.15
2018-07-16T01:19:22.418Z,45.97
2018-07-16T01:21:50.594Z,46.18
2018-07-16T01:24:18.767Z,46.61
2018-07-16T01:26:46.947Z,46.90
2018-07-16T01:29:15.103Z,46.86
2018-07-16T01:31:43.283Z,46.67
2018-07-16T01:34:11.463Z,46.82
2018-07-16T01:36:39.619Z,46.95
2018-07-16T01:39:07.818Z,47.26
2018-07-16T01:41:35.998Z,47.37
2018-07-16T01:44:04.174Z,47.17
2018-07-16T01:46:32.410Z,47.67
2018-07-16T01:49:00.576Z,47.73
2018-07-16T01:51:28.736Z,47.77
2018-07-16T01:53:56.919Z,47.33
2018-07-16T01:56:25.094Z,47.79
2018-07-16T01:58:53.263Z,47.70
2018-07-16T02:01:21.446Z,48.15
2018-07-16T02:03:49.603Z,48.18
2018-07-16T02:06:17.775Z,48.33
2018-07-16T02:08:45.943Z,48.27
2018-07-16T02:11:14.118Z,47.79
2018-07-16T02:13:42.294Z,47.85
2018-07-16T02:16:10.467Z,48.40
2018-07-16T02:18:38.637Z,48.70
2018-07-16T02:21:06.882Z,48.55
2018-07-16T02:23:35.051Z,48.66
2018-07-16T02:26:03.258Z,48.23
2018-07-16T02:28:31.458Z,48.39
2018-07-16T02:30:59.622Z,48.84
2018-07-16T02:33:27.808Z,49.03
2018-07-16T02:35:55.974Z,49.08
2018-07-16T02:38:24.159Z,48.35
2018-07-16T02:40:52.340Z,48.60
2018-07-16T02:43:20.531Z,48.47
2018-07-16T02:45:48.707Z,48.81
2018-07-16T02:48:16.878Z,48.79
2018-07-16T02:50:45.068Z,49.34
2018-07-16T02:53:13.231Z,49.39
2018-07-16T02:55:41.422Z,48.63
2018-07-16T02:58:09.586Z,48.41
2018-07-16T03:00:37.773Z,48.63
2018-07-16T03:03:05.931Z,48.78
2018-07-16T03:05:34.126Z,48.89
2018-07-16T03:08:02.279Z,49.31
2018-07-16T03:10:30.464Z,50.06
2018-07-16T03:12:58.623Z,50.25
2018-07-16T03:15:26.802Z,50.69
2018-07-16T03:17:54.984Z,50.98
2018-07-16T03:20:23.163Z,51.61
2018-07-16T03:22:51.351Z,52.12
2018-07-16T03:25:19.526Z,52.09
2018-07-16T03:27:47.718Z,52.60
2018-07-16T03:30:15.935Z,53.34
2018-07-16T03:32:44.111Z,54.30
2018-07-16T03:35:12.286Z,54.43
2018-07-16T03:37:40.462Z,54.83
2018-07-16T03:40:08.672Z,55.55
2018-07-16T03:42:36.838Z,55.80
2018-07-16T03:45:05.622Z,56.56
2018-07-16T03:47:33.790Z,57.13
2018-07-16T03:50:01.966Z,57.39
2018-07-16T03:52:30.136Z,57.25
2018-07-16T03:54:58.466Z,57.82
2018-07-16T03:57:26.655Z,57.80
2018-07-16T03:59:54.815Z,57.54
2018-07-16T04:02:23.000Z,57.58
2018-07-16T04:04:51.158Z,57.54
2018-07-16T04:07:19.330Z,58.14
2018-07-16T04:09:47.506Z,57.91
2018-07-16T04:12:15.682Z,57.75
2018-07-16T04:14:43.859Z,57.74
2018-07-16T04:17:12.018Z,57.64
2018-07-16T04:19:40.205Z,57.38
2018-07-16T04:22:08.401Z,57.92
2018-07-16T04:24:36.550Z,57.46
2018-07-16T04:27:04.739Z,57.29
2018-07-16T04:29:32.906Z,57.45
2018-07-16T04:32:01.091Z,57.86
2018-07-16T04:34:29.259Z,57.36
2018-07-16T04:36:57.435Z,56.83
2018-07-16T04:39:25.600Z,57.14
2018-07-16T04:41:53.796Z,57.31
2018-07-16T04:44:22.235Z,57.13
2018-07-16T04:46:50.406Z,57.40
2018-07-16T04:49:18.610Z,57.51
2018-07-16T04:51:46.792Z,57.80
2018-07-16T04:54:15.034Z,58.16
2018-07-16T04:56:43.206Z,58.14
2018-07-16T04:59:11.402Z,57.75
2018-07-16T05:01:39.578Z,57.45
2018-07-16T05:04:07.742Z,57.11
2018-07-16T05:06:36.031Z,57.80
2018-07-16T05:09:04.655Z,57.73
2018-07-16T05:11:32.846Z,57.77
2018-07-16T05:14:01.010Z,58.36
2018-07-16T05:16:29.179Z,58.52
2018-07-16T05:18:57.354Z,58.67
2018-07-16T05:21:25.530Z,58.45
2018-07-16T05:23:53.714Z,58.01
2018-07-16T05:26:21.853Z,58.99
2018-07-16T05:28:50.019Z,58.67
2018-07-16T05:31:18.223Z,58.47
2018-07-16T05:33:46.400Z,58.81
2018-07-16T05:36:14.570Z,59.01
2018-07-16T05:38:42.724Z,58.07
2018-07-16T05:41:10.887Z,57.64
2018-07-16T05:43:42.097Z,57.64
2018-07-16T05:46:10.283Z,58.49
2018-07-16T05:48:38.458Z,57.77
2018-07-16T05:51:06.663Z,58.15
2018-07-16T05:53:34.831Z,56.92
2018-07-16T05:56:03.197Z,56.83
2018-07-16T05:58:31.388Z,56.80
2018-07-16T06:00:59.546Z,56.81
2018-07-16T06:03:27.735Z,56.57
2018-07-16T06:05:55.902Z,56.40
2018-07-16T06:08:24.102Z,56.38
2018-07-16T06:10:52.286Z,56.31
2018-07-16T06:13:20.462Z,54.98
2018-07-16T06:15:48.642Z,55.11
2018-07-16T06:18:16.810Z,55.11
2018-07-16T06:20:44.983Z,54.88
2018-07-16T06:23:13.154Z,54.51
2018-07-16T06:25:41.326Z,54.54
2018-07-16T06:28:09.481Z,54.40
2018-07-16T06:30:37.686Z,53.71
2018-07-16T06:33:05.978Z,53.03
2018-07-16T06:35:34.126Z,52.96
2018-07-16T06:38:02.284Z,52.58
2018-07-16T06:40:30.564Z,51.75
2018-07-16T06:42:58.594Z,51.05
2018-07-16T06:45:26.758Z,51.66
2018-07-16T06:47:55.048Z,51.13
2018-07-16T06:50:23.128Z,52.59
2018-07-16T06:52:51.275Z,50.98
2018-07-16T06:55:19.438Z,52.34
2018-07-16T06:57:47.601Z,51.14
2018-07-16T07:00:15.771Z,50.14
2018-07-16T07:02:43.998Z,49.69
2018-07-16T07:05:12.147Z,50.01
2018-07-16T07:07:40.297Z,50.20
2018-07-16T07:10:08.686Z,50.66
2018-07-16T07:12:36.770Z,50.03
2018-07-16T07:15:04.954Z,48.89
2018-07-16T07:17:33.124Z,49.88
2018-07-16T07:20:01.271Z,49.13
2018-07-16T07:22:29.430Z,47.77
2018-07-16T07:24:57.595Z,47.64
2018-07-16T07:27:25.759Z,47.12
2018-07-16T07:29:54.134Z,46.48
2018-07-16T07:32:22.279Z,46.97
2018-07-16T07:34:50.458Z,46.92
2018-07-16T07:37:18.618Z,47.47
2018-07-16T07:39:46.798Z,48.19
2018-07-16T07:42:15.008Z,47.39
2018-07-16T07:44:43.197Z,47.37
2018-07-16T07:47:11.346Z,47.39
2018-07-16T07:49:39.726Z,47.69
2018-07-16T07:52:07.906Z,49.02
2018-07-16T07:54:36.218Z,46.19
2018-07-16T07:57:04.359Z,45.41
2018-07-16T07:59:32.727Z,46.18
2018-07-16T08:02:01.106Z,45.53
2018-07-16T08:04:29.266Z,44.37
2018-07-16T08:07:02.751Z,45.06
2018-07-16T08:09:30.924Z,46.00
2018-07-16T08:11:59.084Z,45.94
2018-07-16T08:14:27.284Z,44.99
2018-07-16T08:16:55.578Z,45.55
2018-07-16T08:19:23.752Z,43.92
2018-07-16T08:21:51.902Z,42.95
2018-07-16T08:24:20.071Z,44.43
2018-07-16T08:26:48.443Z,44.47
2018-07-16T08:29:16.591Z,42.89
2018-07-16T08:31:44.760Z,42.95
2018-07-16T08:34:13.100Z,43.56
2018-07-16T08:36:41.331Z,42.22
2018-07-16T08:39:09.622Z,42.57
2018-07-16T08:41:37.793Z,41.67
2018-07-16T08:44:06.062Z,41.13
2018-07-16T08:46:34.292Z,40.63
2018-07-16T08:49:02.563Z,40.58
2018-07-16T08:51:30.938Z,41.03
2018-07-16T08:53:59.146Z,40.43
2018-07-16T08:56:27.386Z,40.30
2018-07-16T08:58:55.579Z,39.70
2018-07-16T09:01:23.767Z,38.75
2018-07-16T09:03:51.962Z,38.32
2018-07-16T09:06:20.130Z,38.06
2018-07-16T09:08:48.295Z,37.89
2018-07-16T09:11:16.584Z,37.74
2018-07-16T09:13:44.646Z,38.70
2018-07-16T09:16:12.795Z,38.19
2018-07-16T09:18:41.052Z,37.25
2018-07-16T09:21:09.189Z,36.89
2018-07-16T09:23:37.370Z,37.32
2018-07-16T09:26:05.566Z,36.24
2018-07-16T09:28:33.767Z,36.29
2018-07-16T09:31:01.926Z,36.43
2018-07-16T09:33:30.110Z,35.59
2018-07-16T09:35:58.312Z,35.69
2018-07-16T09:38:26.531Z,35.53
2018-07-16T09:40:54.818Z,35.08
2018-07-16T09:43:23.350Z,35.17
2018-07-16T09:45:51.498Z,35.27
2018-07-16T09:48:19.646Z,34.18
2018-07-16T09:50:47.834Z,33.92
2018-07-16T09:53:16.016Z,32.70
2018-07-16T09:55:44.170Z,33.42
2018-07-16T09:58:12.315Z,33.00
2018-07-16T10:00:45.686Z,33.00
2018-07-16T10:03:13.842Z,32.89
2018-07-16T10:05:42.023Z,32.58
2018-07-16T10:08:10.183Z,33.21
2018-07-16T10:10:38.427Z,32.36
2018-07-16T10:13:06.804Z,31.21
2018-07-16T10:15:35.144Z,30.28
2018-07-16T10:18:03.319Z,31.75
2018-07-16T10:20:31.552Z,31.22
2018-07-16T10:22:59.682Z,30.37
2018-07-16T10:25:27.890Z,30.28
2018-07-16T10:27:56.199Z,29.95
2018-07-16T10:30:24.448Z,29.34
2018-07-16T10:32:52.658Z,28.77
2018-07-16T10:35:20.859Z,29.76
2018-07-16T10:37:49.067Z,28.72
2018-07-16T10:40:17.266Z,29.59
2018-07-16T10:42:45.475Z,28.21
2018-07-16T10:45:13.702Z,27.64
2018-07-16T10:47:41.891Z,27.95
2018-07-16T10:50:10.091Z,28.40
2018-07-16T10:52:38.290Z,27.29
2018-07-16T10:55:06.548Z,27.63
2018-07-16T10:57:34.703Z,26.86
2018-07-16T11:00:02.918Z,26.04
2018-07-16T11:02:31.135Z,26.51
2018-07-16T11:04:59.340Z,26.61
2018-07-16T11:07:27.579Z,26.87
2018-07-16T11:09:55.777Z,26.84
2018-07-16T11:12:23.987Z,26.21
2018-07-16T11:14:52.269Z,25.79
2018-07-16T11:17:20.399Z,27.36
2018-07-16T11:19:48.587Z,26.39
2018-07-16T11:22:16.799Z,25.81
2018-07-16T11:24:45.007Z,25.61
2018-07-16T11:27:13.199Z,25.31
2018-07-16T11:29:41.374Z,26.08
2018-07-16T11:32:09.706Z,25.99
2018-07-16T11:34:37.862Z,25.17
2018-07-16T11:37:06.088Z,24.94
2018-07-16T11:39:34.250Z,24.84
2018-07-16T11:42:02.394Z,24.67
2018-07-16T11:44:30.621Z,23.93
2018-07-16T11:46:58.802Z,24.16
2018-07-16T11:49:27.266Z,24.13
2018-07-16T11:51:55.462Z,23.26
2018-07-16T11:54:23.624Z,23.97
2018-07-16T11:56:51.808Z,24.09
2018-07-16T11:59:20.619Z,23.65
2018-07-16T12:01:48.747Z,23.82
2018-07-16T12:04:16.854Z,23.71
2018-07-16T12:06:45.011Z,23.54
2018-07-16T12:09:13.196Z,23.83
2018-07-16T12:11:41.359Z,25.00
2018-07-16T12:14:09.510Z,23.67
2018-07-16T12:16:37.718Z,23.74
2018-07-16T12:19:05.923Z,23.92
2018-07-16T12:21:34.091Z,23.52
2018-07-16T12:24:02.264Z,23.28
2018-07-16T12:26:30.422Z,23.52
2018-07-16T12:28:58.615Z,22.67
2018-07-16T12:31:26.771Z,25.29
2018-07-16T12:33:55.138Z,24.07
2018-07-16T12:36:23.314Z,22.59
2018-07-16T12:38:51.490Z,23.06
2018-07-16T12:41:19.834Z,22.60
2018-07-16T12:43:47.871Z,21.54
2018-07-16T12:46:16.102Z,22.02
2018-07-16T12:48:44.262Z,23.01
2018-07-16T12:51:12.422Z,21.84
2018-07-16T12:53:40.587Z,21.55
2018-07-16T12:56:08.774Z,21.18
2018-07-16T12:58:36.983Z,22.44
2018-07-16T13:01:05.151Z,22.51
2018-07-16T13:03:33.314Z,21.72
2018-07-16T13:06:01.495Z,21.72
2018-07-16T13:08:29.642Z,23.00
2018-07-16T13:10:57.842Z,22.58
2018-07-16T13:13:26.003Z,23.21
2018-07-16T13:15:54.197Z,23.12
2018-07-16T13:18:22.338Z,22.50
2018-07-16T13:20:50.495Z,22.27
2018-07-16T13:23:18.726Z,22.67
2018-07-16T13:25:46.925Z,21.92
2018-07-16T13:28:15.069Z,21.72
2018-07-16T13:30:43.253Z,22.74
2018-07-16T13:33:11.699Z,22.59
2018-07-16T13:35:41.681Z,23.07
2018-07-16T13:38:10.487Z,22.24
2018-07-16T13:40:38.670Z,22.54
2018-07-16T13:43:06.894Z,22.70
2018-07-16T13:45:35.095Z,22.88
2018-07-16T13:48:03.327Z,22.29
2018-07-16T13:50:31.519Z,22.49
2018-07-16T13:53:00.163Z,21.58
2018-07-16T13:55:28.778Z,21.31
2018-07-16T13:57:57.355Z,21.87
2018-07-16T14:00:26.072Z,23.39
2018-07-16T14:02:54.396Z,22.35
2018-07-16T14:05:22.743Z,22.44
2018-07-16T14:07:51.080Z,22.81
2018-07-16T14:10:19.450Z,22.11
2018-07-16T14:12:48.298Z,22.36
2018-07-16T14:15:16.602Z,22.08
2018-07-16T14:17:45.025Z,22.92
2018-07-16T14:20:13.531Z,22.27
2018-07-16T14:22:42.259Z,22.33
2018-07-16T14:25:10.879Z,22.15
2018-07-16T14:27:39.322Z,23.51
2018-07-16T14:30:07.858Z,22.81
2018-07-16T14:32:36.631Z,23.47
2018-07-16T14:35:04.904Z,22.64
2018-07-16T14:37:33.137Z,23.20
2018-07-16T14:40:02.050Z,23.30
2018-07-16T14:42:30.235Z,23.72
2018-07-16T14:44:58.600Z,23.04
2018-07-16T14:47:27.022Z,22.87
2018-07-16T14:49:55.635Z,23.48
2018-07-16T14:52:23.818Z,24.32
2018-07-16T14:54:52.342Z,24.61
2018-07-16T14:57:20.556Z,24.81
2018-07-16T14:59:48.734Z,25.81
2018-07-16T15:02:17.980Z,24.94
2018-07-16T15:04:46.267Z,24.93
2018-07-16T15:07:14.454Z,24.43
2018-07-16T15:09:42.619Z,24.96
2018-07-16T15:12:10.835Z,25.01
2018-07-16T15:14:39.014Z,24.56
2018-07-16T15:17:07.186Z,24.41
2018-07-16T15:19:35.338Z,24.95
2018-07-16T15:22:03.533Z,25.90
2018-07-16T15:24:31.702Z,24.96
2018-07-16T15:26:59.861Z,25.21
2018-07-16T15:29:28.034Z,25.06
2018-07-16T15:31:56.415Z,25.40
2018-07-16T15:34:24.946Z,26.53
2018-07-16T15:36:53.116Z,26.54
2018-07-16T15:39:21.414Z,24.73
2018-07-16T15:41:49.667Z,25.17
2018-07-16T15:44:17.918Z,25.13
2018-07-16T15:46:46.109Z,25.14
2018-07-16T15:49:14.305Z,24.89
2018-07-16T15:51:42.477Z,25.54
2018-07-16T15:54:10.653Z,26.06
2018-07-16T15:56:38.835Z,26.23
2018-07-16T15:59:07.022Z,25.56
2018-07-16T16:01:35.202Z,25.35
2018-07-16T16:04:03.374Z,25.18
2018-07-16T16:06:31.589Z,26.49
2018-07-16T16:08:59.824Z,26.07
2018-07-16T16:11:27.970Z,26.39
2018-07-16T16:13:56.163Z,26.16
2018-07-16T16:16:24.330Z,26.21
2018-07-16T16:18:52.496Z,26.06
2018-07-16T16:21:20.642Z,25.32
2018-07-16T16:23:48.811Z,25.60
2018-07-16T16:26:17.024Z,24.83
2018-07-16T16:28:45.114Z,25.21
2018-07-16T16:31:13.282Z,25.83
2018-07-16T16:33:41.490Z,26.58
2018-07-16T16:36:09.666Z,26.03
2018-07-16T16:38:37.822Z,25.75
2018-07-16T16:41:06.335Z,26.54
2018-07-16T16:43:34.510Z,26.42
2018-07-16T16:46:02.658Z,26.71
2018-07-16T16:48:30.811Z,26.58
2018-07-16T16:50:58.970Z,26.96
2018-07-16T16:53:27.141Z,26.45
2018-07-16T16:55:55.339Z,26.41
2018-07-16T16:58:23.558Z,27.00
2018-07-16T17:00:52.074Z,27.13
2018-07-16T17:03:20.250Z,27.26
2018-07-16T17:05:49.427Z,26.93
2018-07-16T17:08:17.587Z,26.31
2018-07-16T17:10:45.738Z,26.47
2018-07-16T17:13:13.906Z,26.06
2018-07-16T17:15:42.063Z,26.63
2018-07-16T17:18:10.300Z,26.18
2018-07-16T17:20:38.374Z,26.33
2018-07-16T17:23:06.591Z,27.05
2018-07-16T17:25:34.694Z,25.81
2018-07-16T17:28:02.882Z,26.29
2018-07-16T17:30:31.047Z,27.19
2018-07-16T17:32:59.247Z,26.93
2018-07-16T17:35:27.408Z,26.81
2018-07-16T17:37:55.562Z,26.41
2018-07-16T17:40:23.738Z,26.19
2018-07-16T17:42:51.934Z,26.87
2018-07-16T17:45:20.042Z,27.70
2018-07-16T17:47:48.186Z,27.19
2018-07-16T17:50:16.335Z,27.95
2018-07-16T17:52:44.498Z,26.82
2018-07-16T17:55:12.646Z,27.15
2018-07-16T17:57:40.821Z,27.30
2018-07-16T18:00:09.014Z,27.46
2018-07-16T18:02:37.174Z,27.43
2018-07-16T18:05:05.344Z,28.62
2018-07-16T18:07:33.508Z,28.44
2018-07-16T18:10:03.134Z,28.54
2018-07-16T18:12:31.321Z,28.34
2018-07-16T18:14:59.479Z,28.89
2018-07-16T18:17:27.642Z,28.87
2018-07-16T18:19:55.802Z,28.70
2018-07-16T18:22:23.977Z,29.31
2018-07-16T18:24:52.130Z,29.07
2018-07-16T18:27:20.335Z,28.40
2018-07-16T18:29:48.481Z,29.71
2018-07-16T18:32:16.646Z,29.51
2018-07-16T18:34:44.802Z,31.29
2018-07-16T18:37:12.959Z,32.26
2018-07-16T18:39:41.115Z,31.45
2018-07-16T18:42:09.318Z,31.92
2018-07-16T18:44:37.462Z,32.75
2018-07-16T18:47:05.680Z,34.22
2018-07-16T18:49:33.865Z,35.02
2018-07-16T18:52:02.022Z,34.87
2018-07-16T18:54:30.180Z,34.75
2018-07-16T18:56:58.342Z,34.85
2018-07-16T18:59:26.529Z,35.35
2018-07-16T19:01:54.718Z,35.13
2018-07-16T19:04:22.878Z,35.44
2018-07-16T19:06:51.053Z,36.09
2018-07-16T19:09:19.246Z,36.11
2018-07-16T19:11:47.419Z,36.80
2018-07-16T19:14:15.598Z,35.40
2018-07-16T19:16:43.758Z,36.16
2018-07-16T19:19:11.918Z,37.15
2018-07-16T19:21:40.086Z,37.78
2018-07-16T19:24:08.279Z,38.25
2018-07-16T19:26:36.446Z,36.78
2018-07-16T19:29:04.630Z,37.65
2018-07-16T19:31:32.858Z,37.91
2018-07-16T19:34:01.043Z,37.73
2018-07-16T19:36:29.223Z,38.54
2018-07-16T19:38:57.453Z,39.24
2018-07-16T19:41:25.558Z,38.99
2018-07-16T19:43:53.722Z,39.09
2018-07-16T19:46:21.905Z,39.14
2018-07-16T19:48:50.078Z,39.78
2018-07-16T19:51:18.254Z,40.27
2018-07-16T19:53:46.451Z,40.51
2018-07-16T19:56:14.626Z,40.48
2018-07-16T19:58:42.787Z,40.17
2018-07-16T20:01:10.983Z,40.96
2018-07-16T20:03:39.173Z,40.92
2018-07-16T20:06:07.338Z,41.01
2018-07-16T20:08:35.510Z,40.96
2018-07-16T20:11:03.706Z,41.20
2018-07-16T20:13:31.926Z,41.36
2018-07-16T20:16:00.094Z,42.16
2018-07-16T20:18:28.357Z,42.23
2018-07-16T20:20:57.865Z,41.86
2018-07-16T20:23:25.962Z,42.01
2018-07-16T20:25:55.672Z,41.82
2018-07-16T20:28:23.938Z,42.18
2018-07-16T20:30:52.105Z,41.83
2018-07-16T20:33:20.308Z,39.92
2018-07-16T20:35:48.766Z,40.12
2018-07-16T20:38:17.010Z,40.95
2018-07-16T20:40:45.527Z,40.61
2018-07-16T20:43:13.774Z,41.34
2018-07-16T20:45:41.974Z,41.22
2018-07-16T20:48:10.138Z,41.86
2018-07-16T20:50:38.347Z,41.60
2018-07-16T20:53:06.524Z,41.45
2018-07-16T20:55:34.674Z,41.32
2018-07-16T20:58:02.850Z,41.27
2018-07-16T21:00:31.072Z,41.75
2018-07-16T21:02:59.250Z,42.17
2018-07-16T21:05:27.426Z,42.17
2018-07-16T21:07:55.622Z,41.57
2018-07-16T21:10:23.789Z,41.54
2018-07-16T21:12:51.982Z,42.94
2018-07-16T21:15:20.270Z,44.25
2018-07-16T21:17:48.461Z,44.67
2018-07-16T21:20:16.656Z,43.48
2018-07-16T21:22:44.830Z,44.12
2018-07-16T21:25:13.014Z,44.35
2018-07-16T21:27:41.194Z,44.54
2018-07-16T21:30:09.387Z,44.96
2018-07-16T21:32:37.531Z,46.29
2018-07-16T21:35:05.723Z,45.82
2018-07-16T21:37:33.886Z,45.92
2018-07-16T21:40:02.046Z,46.58
2018-07-16T21:42:30.218Z,45.43
2018-07-16T21:44:58.398Z,46.45
2018-07-16T21:47:26.558Z,46.83
2018-07-16T21:49:54.723Z,46.99
2018-07-16T21:52:23.731Z,46.39
2018-07-16T21:54:51.897Z,46.70
2018-07-16T21:57:20.098Z,46.77
2018-07-16T21:59:48.278Z,45.96
2018-07-16T22:02:16.460Z,45.79
2018-07-16T22:04:44.643Z,44.74
2018-07-16T22:07:12.806Z,44.90
2018-07-16T22:09:40.977Z,44.27
2018-07-16T22:12:09.135Z,45.75
2018-07-16T22:14:37.310Z,45.96
2018-07-16T22:17:05.474Z,45.27
2018-07-16T22:19:33.638Z,44.28
2018-07-16T22:22:01.815Z,44.28
2018-07-16T22:24:29.990Z,44.60
2018-07-16T22:26:58.146Z,45.43
2018-07-16T22:29:26.334Z,45.72
2018-07-16T22:31:54.482Z,45.61
2018-07-16T22:34:22.671Z,45.85
2018-07-16T22:36:51.003Z,46.10
2018-07-16T22:39:19.158Z,46.31
2018-07-16T22:41:47.323Z,46.93
2018-07-16T22:44:15.470Z,46.64
2018-07-16T22:46:43.640Z,45.98
2018-07-16T22:49:11.802Z,44.87
2018-07-16T22:51:39.966Z,45.79
2018-07-16T22:54:08.185Z,45.38
2018-07-16T22:56:36.302Z,45.09
2018-07-16T22:59:04.458Z,45.62
2018-07-16T23:01:32.614Z,45.48
2018-07-16T23:04:00.782Z,45.40
2018-07-16T23:06:28.962Z,45.16
2018-07-16T23:08:57.122Z,44.59
2018-07-16T23:11:25.274Z,45.00
2018-07-16T23:13:53.458Z,45.20
2018-07-16T23:16:21.618Z,45.43
2018-07-16T23:18:49.786Z,45.32
2018-07-16T23:21:17.942Z,45.70
2018-07-16T23:23:46.090Z,46.37
2018-07-16T23:26:14.255Z,46.70
2018-07-16T23:28:42.447Z,47.48
2018-07-16T23:31:10.594Z,47.41
2018-07-16T23:33:38.743Z,46.11
2018-07-16T23:36:06.898Z,46.45
2018-07-16T23:38:35.103Z,46.53
2018-07-16T23:41:03.274Z,47.29
2018-07-16T23:43:31.447Z,47.19
2018-07-16T23:45:59.602Z,47.12
2018-07-16T23:48:27.746Z,47.31
2018-07-16T23:50:55.920Z,48.16
2018-07-16T23:53:24.078Z,47.06
2018-07-16T23:55:52.250Z,47.43
2018-07-16T23:58:20.394Z,46.72
